createdAt,value
2023-04-07T00:02:16.811Z,5.40
2023-04-07T00:04:46.538Z,5.39
2023-04-07T00:07:16.151Z,5.39
2023-04-07T00:09:45.753Z,5.35
2023-04-07T00:12:15.216Z,5.34
2023-04-07T00:14:44.618Z,5.33
2023-04-07T00:17:14.018Z,5.32
2023-04-07T00:19:44.213Z,5.29
2023-04-07T00:22:13.684Z,5.25
2023-04-07T00:24:43.623Z,5.23
2023-04-07T00:27:12.989Z,5.21
2023-04-07T00:29:43.968Z,5.21
2023-04-07T00:32:13.389Z,5.20
2023-04-07T00:34:42.812Z,5.21
2023-04-07T00:37:12.301Z,5.20
2023-04-07T00:39:41.663Z,5.20
2023-04-07T00:42:11.120Z,5.19
2023-04-07T00:44:41.024Z,5.19
2023-04-07T00:47:11.414Z,5.18
2023-04-07T00:49:40.801Z,5.17
2023-04-07T00:52:12.353Z,5.15
2023-04-07T00:54:43.555Z,5.14
2023-04-07T00:57:13.040Z,5.13
2023-04-07T00:59:42.475Z,5.12
2023-04-07T01:02:22.257Z,5.10
2023-04-07T01:04:59.459Z,5.10
2023-04-07T01:07:39.095Z,5.08
2023-04-07T01:10:19.733Z,5.07
2023-04-07T01:13:31.501Z,5.04
2023-04-07T01:16:18.976Z,5.03
2023-04-07T01:18:57.662Z,5.03
2023-04-07T01:21:29.160Z,5.04
2023-04-07T01:24:27.108Z,5.03
2023-04-07T01:27:32.011Z,5.02
2023-04-07T01:30:05.255Z,5.03
2023-04-07T01:32:37.769Z,5.01
2023-04-07T01:35:12.616Z,5.00
2023-04-07T01:37:45.854Z,5.00
2023-04-07T01:40:16.722Z,4.99
2023-04-07T01:42:47.844Z,4.99
2023-04-07T01:45:18.536Z,5.00
2023-04-07T01:47:48.552Z,5.00
2023-04-07T01:50:18.191Z,5.00
2023-04-07T01:52:48.343Z,5.00
2023-04-07T01:55:18.223Z,4.99
2023-04-07T01:57:57.107Z,4.99
2023-04-07T02:00:26.444Z,4.99
2023-04-07T02:03:00.134Z,4.99
2023-04-07T02:05:31.349Z,4.99
2023-04-07T02:08:09.040Z,5.00
2023-04-07T02:10:39.474Z,5.00
2023-04-07T02:13:13.762Z,5.01
2023-04-07T02:15:45.991Z,5.08
2023-04-07T02:18:16.647Z,5.13
2023-04-07T02:20:47.144Z,5.15
2023-04-07T02:23:16.576Z,5.16
2023-04-07T02:25:46.040Z,5.16
2023-04-07T02:28:16.059Z,5.13
2023-04-07T02:30:47.666Z,5.11
2023-04-07T02:33:17.334Z,5.07
2023-04-07T02:35:46.709Z,5.05
2023-04-07T02:38:16.043Z,5.04
2023-04-07T02:40:45.658Z,5.03
2023-04-07T02:43:14.965Z,5.04
2023-04-07T02:45:44.448Z,5.04
2023-04-07T02:48:13.744Z,5.05
2023-04-07T02:50:43.300Z,5.05
2023-04-07T02:53:12.613Z,5.07
2023-04-07T02:55:42.255Z,5.07
2023-04-07T02:58:11.819Z,5.06
2023-04-07T03:00:45.696Z,5.05
2023-04-07T03:03:18.977Z,5.04
2023-04-07T03:06:01.182Z,5.02
2023-04-07T03:08:30.697Z,5.00
2023-04-07T03:11:00.096Z,5.01
2023-04-07T03:13:32.472Z,5.01
2023-04-07T03:16:01.879Z,5.00
2023-04-07T03:18:34.151Z,4.98
2023-04-07T03:21:03.830Z,4.97
2023-04-07T03:23:33.552Z,4.96
2023-04-07T03:26:03.169Z,4.94
2023-04-07T03:28:36.076Z,4.92
2023-04-07T03:31:05.676Z,4.91
2023-04-07T03:33:35.565Z,4.88
2023-04-07T03:36:05.806Z,4.86
2023-04-07T03:38:35.650Z,4.85
2023-04-07T03:41:05.507Z,4.84
2023-04-07T03:43:34.987Z,4.83
2023-04-07T03:46:04.639Z,4.84
2023-04-07T03:48:34.073Z,4.86
2023-04-07T03:51:07.839Z,4.87
2023-04-07T03:53:37.789Z,4.88
2023-04-07T03:56:17.335Z,4.91
2023-04-07T03:58:53.212Z,4.92
2023-04-07T04:01:28.528Z,4.93
2023-04-07T04:03:59.000Z,4.94
2023-04-07T04:06:30.178Z,4.95
2023-04-07T04:09:15.761Z,4.95
2023-04-07T04:11:47.940Z,4.97
2023-04-07T04:14:17.812Z,4.99
2023-04-07T04:16:54.273Z,5.00
2023-04-07T04:19:40.425Z,5.02
2023-04-07T04:22:24.843Z,5.04
2023-04-07T04:24:56.641Z,5.06
2023-04-07T04:27:27.180Z,5.08
2023-04-07T04:30:02.330Z,5.10
2023-04-07T04:32:39.787Z,5.12
2023-04-07T04:35:10.201Z,5.13
2023-04-07T04:37:46.045Z,5.14
2023-04-07T04:40:16.814Z,5.15
2023-04-07T04:42:47.059Z,5.16
2023-04-07T04:45:16.790Z,5.16
2023-04-07T04:47:49.044Z,5.17
2023-04-07T04:50:19.180Z,5.19
2023-04-07T04:52:48.962Z,5.22
2023-04-07T04:55:27.379Z,5.26
2023-04-07T04:57:57.000Z,5.31
2023-04-07T05:00:35.172Z,5.34
2023-04-07T05:03:06.785Z,5.37
2023-04-07T05:05:39.067Z,5.39
2023-04-07T05:08:11.766Z,5.42
2023-04-07T05:10:42.130Z,5.44
2023-04-07T05:13:14.766Z,5.48
2023-04-07T05:15:44.203Z,5.50
2023-04-07T05:18:16.120Z,5.51
2023-04-07T05:20:47.417Z,5.52
2023-04-07T05:23:24.302Z,5.56
2023-04-07T05:25:53.850Z,5.60
2023-04-07T05:28:23.408Z,5.65
2023-04-07T05:30:53.696Z,5.69
2023-04-07T05:33:24.161Z,5.75
2023-04-07T05:35:55.645Z,5.78
2023-04-07T05:38:25.435Z,5.85
2023-04-07T05:40:57.285Z,5.90
2023-04-07T05:43:29.717Z,5.93
2023-04-07T05:45:59.082Z,6.00
2023-04-07T05:48:28.610Z,6.09
2023-04-07T05:50:58.239Z,6.16
2023-04-07T05:53:27.744Z,6.26
2023-04-07T05:55:57.358Z,6.36
2023-04-07T05:58:44.191Z,6.46
2023-04-07T06:01:13.977Z,6.48
2023-04-07T06:03:43.609Z,6.49
2023-04-07T06:06:19.186Z,6.54
2023-04-07T06:08:48.935Z,6.58
2023-04-07T06:11:18.437Z,6.63
2023-04-07T06:13:48.135Z,6.65
2023-04-07T06:16:19.515Z,6.69
2023-04-07T06:18:49.683Z,6.76
2023-04-07T06:21:18.969Z,6.83
2023-04-07T06:23:48.854Z,6.90
2023-04-07T06:26:18.667Z,6.96
2023-04-07T06:28:48.161Z,7.06
2023-04-07T06:31:18.994Z,7.21
2023-04-07T06:33:48.639Z,7.32
2023-04-07T06:36:18.495Z,7.35
2023-04-07T06:38:48.214Z,7.38
2023-04-07T06:41:17.753Z,7.46
2023-04-07T06:43:51.540Z,7.45
2023-04-07T06:46:21.403Z,7.45
2023-04-07T06:48:50.915Z,7.55
2023-04-07T06:51:20.283Z,7.67
2023-04-07T06:53:50.007Z,7.78
2023-04-07T06:56:19.612Z,7.88
2023-04-07T06:58:48.993Z,8.02
2023-04-07T07:01:18.441Z,8.08
2023-04-07T07:03:48.373Z,8.18
2023-04-07T07:06:18.231Z,8.12
2023-04-07T07:08:47.688Z,8.19
2023-04-07T07:11:17.079Z,8.62
2023-04-07T07:13:46.842Z,8.86
2023-04-07T07:16:19.681Z,8.98
2023-04-07T07:18:49.123Z,9.01
2023-04-07T07:21:19.515Z,8.85
2023-04-07T07:23:49.256Z,8.71
2023-04-07T07:26:18.964Z,8.76
2023-04-07T07:28:48.491Z,8.94
2023-04-07T07:31:18.943Z,8.90
2023-04-07T07:33:50.335Z,8.72
2023-04-07T07:36:20.153Z,8.77
2023-04-07T07:38:53.900Z,9.01
2023-04-07T07:41:24.008Z,9.29
2023-04-07T07:43:55.371Z,9.46
2023-04-07T07:46:26.352Z,9.54
2023-04-07T07:48:56.628Z,9.32
2023-04-07T07:51:26.336Z,9.05
2023-04-07T07:53:55.794Z,9.14
2023-04-07T07:56:25.289Z,9.18
2023-04-07T07:58:55.729Z,9.16
2023-04-07T08:01:26.183Z,9.23
2023-04-07T08:03:55.897Z,9.39
2023-04-07T08:06:25.572Z,9.61
2023-04-07T08:08:55.014Z,9.77
2023-04-07T08:11:24.577Z,9.97
2023-04-07T08:13:54.558Z,10.29
2023-04-07T08:16:24.169Z,10.53
2023-04-07T08:18:57.760Z,10.92
2023-04-07T08:21:28.019Z,11.31
2023-04-07T08:23:57.943Z,11.52
2023-04-07T08:26:27.400Z,11.74
2023-04-07T08:28:56.899Z,11.93
2023-04-07T08:31:28.750Z,12.10
2023-04-07T08:34:00.014Z,12.12
2023-04-07T08:36:30.546Z,12.09
2023-04-07T08:39:01.574Z,11.82
2023-04-07T08:41:39.820Z,11.92
2023-04-07T08:44:10.806Z,11.95
2023-04-07T08:46:41.617Z,11.92
2023-04-07T08:49:14.317Z,11.78
2023-04-07T08:51:48.690Z,11.77
2023-04-07T08:54:21.941Z,11.59
2023-04-07T08:56:52.048Z,11.31
2023-04-07T08:59:28.818Z,11.54
2023-04-07T09:01:59.950Z,11.76
2023-04-07T09:04:29.821Z,11.88
2023-04-07T09:07:00.300Z,11.94
2023-04-07T09:09:31.884Z,12.04
2023-04-07T09:12:01.930Z,12.18
2023-04-07T09:14:31.843Z,12.21
2023-04-07T09:17:01.705Z,12.14
2023-04-07T09:19:33.137Z,12.16
2023-04-07T09:22:05.570Z,12.17
2023-04-07T09:24:36.885Z,11.95
2023-04-07T09:27:18.166Z,11.68
2023-04-07T09:29:51.550Z,11.51
2023-04-07T09:32:41.465Z,11.36
2023-04-07T09:35:14.323Z,11.39
2023-04-07T09:37:46.116Z,11.17
2023-04-07T09:40:27.343Z,11.25
2023-04-07T09:42:58.999Z,11.31
2023-04-07T09:45:36.703Z,11.29
2023-04-07T09:48:20.289Z,11.34
2023-04-07T09:50:49.801Z,11.37
2023-04-07T09:53:23.416Z,11.47
2023-04-07T09:55:53.935Z,11.56
2023-04-07T09:58:24.808Z,11.71
2023-04-07T10:00:54.315Z,11.80
2023-04-07T10:03:24.782Z,11.92
2023-04-07T10:05:54.959Z,11.99
2023-04-07T10:08:24.520Z,12.17
2023-04-07T10:10:54.010Z,12.21
2023-04-07T10:13:25.506Z,12.30
2023-04-07T10:15:56.468Z,12.37
2023-04-07T10:18:37.428Z,12.89
2023-04-07T10:21:15.611Z,13.56
2023-04-07T10:24:00.135Z,14.16
2023-04-07T10:26:35.301Z,14.19
2023-04-07T10:29:11.018Z,13.97
2023-04-07T10:31:42.136Z,13.57
2023-04-07T10:34:15.167Z,13.69
2023-04-07T10:37:15.122Z,13.68
2023-04-07T10:39:44.688Z,13.85
2023-04-07T10:42:39.389Z,13.79
2023-04-07T10:45:10.716Z,13.69
2023-04-07T10:48:01.075Z,13.94
2023-04-07T10:50:38.874Z,14.08
2023-04-07T10:53:12.341Z,14.14
2023-04-07T10:55:55.066Z,14.61
2023-04-07T10:58:34.935Z,14.62
2023-04-07T11:01:05.281Z,14.99
2023-04-07T11:03:41.469Z,15.21
2023-04-07T11:06:13.949Z,15.35
2023-04-07T11:08:49.537Z,14.68
2023-04-07T11:11:40.996Z,14.85
2023-04-07T11:14:10.535Z,15.35
2023-04-07T11:16:43.429Z,15.16
2023-04-07T11:19:13.979Z,15.66
2023-04-07T11:21:44.860Z,15.41
2023-04-07T11:24:40.420Z,15.53
2023-04-07T11:27:15.212Z,16.07
2023-04-07T11:29:44.529Z,16.62
2023-04-07T11:32:14.037Z,16.97
2023-04-07T11:34:45.040Z,17.29
2023-04-07T11:37:29.115Z,17.44
2023-04-07T11:39:59.727Z,17.09
2023-04-07T11:42:38.238Z,16.35
2023-04-07T11:45:18.789Z,15.03
2023-04-07T11:47:50.021Z,15.20
2023-04-07T11:50:41.448Z,15.69
2023-04-07T11:53:11.807Z,15.87
2023-04-07T11:55:41.522Z,15.57
2023-04-07T11:58:11.826Z,15.19
2023-04-07T12:01:05.430Z,15.39
2023-04-07T12:03:38.445Z,15.57
2023-04-07T12:06:08.109Z,15.74
2023-04-07T12:08:44.765Z,15.51
2023-04-07T12:11:14.934Z,15.59
2023-04-07T12:13:44.364Z,15.75
2023-04-07T12:16:15.126Z,15.70
2023-04-07T12:18:46.267Z,15.42
2023-04-07T12:21:20.906Z,15.06
2023-04-07T12:23:51.916Z,14.80
2023-04-07T12:26:23.415Z,14.33
2023-04-07T12:28:55.507Z,14.30
2023-04-07T12:31:24.993Z,14.03
2023-04-07T12:33:56.613Z,13.68
2023-04-07T12:36:29.958Z,13.79
2023-04-07T12:39:00.228Z,13.64
2023-04-07T12:41:31.462Z,13.64
2023-04-07T12:44:02.716Z,13.79
2023-04-07T12:46:32.408Z,14.02
2023-04-07T12:49:01.918Z,13.95
2023-04-07T12:51:33.620Z,14.31
2023-04-07T12:54:03.845Z,14.57
2023-04-07T12:56:33.331Z,15.12
2023-04-07T12:59:22.266Z,15.42
2023-04-07T13:01:52.037Z,15.49
2023-04-07T13:04:23.059Z,15.55
2023-04-07T13:06:54.964Z,15.61
2023-04-07T13:09:25.709Z,15.78
2023-04-07T13:11:55.120Z,15.79
2023-04-07T13:14:25.483Z,15.88
2023-04-07T13:16:54.958Z,15.65
2023-04-07T13:19:24.513Z,15.20
2023-04-07T13:21:56.009Z,15.51
2023-04-07T13:24:27.698Z,15.63
2023-04-07T13:26:58.507Z,15.11
2023-04-07T13:29:29.427Z,15.13
2023-04-07T13:32:09.835Z,15.25
2023-04-07T13:34:40.126Z,15.32
2023-04-07T13:37:09.543Z,15.63
2023-04-07T13:39:38.887Z,15.91
2023-04-07T13:42:12.131Z,16.18
2023-04-07T13:44:43.977Z,16.43
2023-04-07T13:47:15.166Z,16.63
2023-04-07T13:49:47.210Z,16.05
2023-04-07T13:52:16.887Z,15.38
2023-04-07T13:54:46.937Z,15.54
2023-04-07T13:57:20.927Z,15.74
2023-04-07T13:59:59.746Z,15.95
2023-04-07T14:02:33.085Z,15.99
2023-04-07T14:05:03.078Z,15.97
2023-04-07T14:07:32.685Z,16.04
2023-04-07T14:10:02.048Z,16.07
2023-04-07T14:12:31.672Z,15.95
2023-04-07T14:15:02.291Z,15.94
2023-04-07T14:17:31.757Z,15.89
2023-04-07T14:20:01.214Z,15.78
2023-04-07T14:22:30.655Z,15.84
2023-04-07T14:25:00.395Z,15.90
2023-04-07T14:27:32.818Z,15.79
2023-04-07T14:30:02.918Z,15.71
2023-04-07T14:32:34.579Z,15.73
2023-04-07T14:35:07.376Z,15.60
2023-04-07T14:37:37.196Z,15.50
2023-04-07T14:40:08.498Z,15.48
2023-04-07T14:42:37.883Z,15.57
2023-04-07T14:45:08.438Z,15.72
2023-04-07T14:47:37.819Z,15.82
2023-04-07T14:50:08.751Z,15.76
2023-04-07T14:52:39.720Z,15.39
2023-04-07T14:55:11.118Z,15.20
2023-04-07T14:57:40.500Z,14.93
2023-04-07T15:00:10.885Z,14.65
2023-04-07T15:02:40.897Z,14.54
2023-04-07T15:05:11.093Z,14.40
2023-04-07T15:07:41.994Z,14.23
2023-04-07T15:10:11.525Z,14.02
2023-04-07T15:12:40.986Z,13.89
2023-04-07T15:15:10.620Z,13.89
2023-04-07T15:17:44.589Z,13.94
2023-04-07T15:20:14.821Z,13.99
2023-04-07T15:22:44.978Z,13.98
2023-04-07T15:25:14.479Z,13.94
2023-04-07T15:27:44.579Z,13.78
2023-04-07T15:30:14.153Z,13.68
2023-04-07T15:33:02.987Z,13.67
2023-04-07T15:35:32.424Z,13.51
2023-04-07T15:38:03.095Z,13.32
2023-04-07T15:40:36.936Z,13.22
2023-04-07T15:43:07.118Z,13.17
2023-04-07T15:45:45.063Z,13.04
2023-04-07T15:48:15.020Z,12.97
2023-04-07T15:50:47.146Z,12.89
2023-04-07T15:53:16.716Z,12.81
2023-04-07T15:55:46.880Z,12.74
2023-04-07T15:58:17.585Z,12.63
2023-04-07T16:00:50.284Z,12.48
2023-04-07T16:03:21.050Z,12.41
2023-04-07T16:05:51.421Z,12.30
2023-04-07T16:08:21.313Z,12.18
2023-04-07T16:10:51.108Z,12.10
2023-04-07T16:13:20.838Z,11.99
2023-04-07T16:15:50.233Z,11.87
2023-04-07T16:18:19.537Z,11.83
2023-04-07T16:20:49.026Z,11.79
2023-04-07T16:23:20.679Z,11.76
2023-04-07T16:25:50.964Z,11.75
2023-04-07T16:28:20.404Z,11.73
2023-04-07T16:30:50.957Z,11.69
2023-04-07T16:33:25.962Z,11.68
2023-04-07T16:35:55.802Z,11.64
2023-04-07T16:38:27.507Z,11.56
2023-04-07T16:41:03.859Z,11.49
2023-04-07T16:43:34.099Z,11.41
2023-04-07T16:46:04.468Z,11.36
2023-04-07T16:48:34.009Z,11.30
2023-04-07T16:51:06.755Z,11.26
2023-04-07T16:53:37.302Z,11.22
2023-04-07T16:56:07.620Z,11.18
2023-04-07T16:58:40.352Z,11.12
2023-04-07T17:01:10.203Z,11.07
2023-04-07T17:03:44.398Z,11.03
2023-04-07T17:06:16.538Z,11.01
2023-04-07T17:08:46.506Z,10.96
2023-04-07T17:11:16.245Z,10.91
2023-04-07T17:13:45.569Z,10.86
2023-04-07T17:16:15.059Z,10.85
2023-04-07T17:18:44.426Z,10.83
2023-04-07T17:21:15.776Z,10.81
2023-04-07T17:23:45.699Z,10.78
2023-04-07T17:26:17.446Z,10.76
2023-04-07T17:28:47.594Z,10.75
2023-04-07T17:31:18.268Z,10.75
2023-04-07T17:33:48.956Z,10.73
2023-04-07T17:36:20.211Z,10.72
2023-04-07T17:38:49.966Z,10.71
2023-04-07T17:41:20.329Z,10.71
2023-04-07T17:43:49.804Z,10.68
2023-04-07T17:46:22.639Z,10.66
2023-04-07T17:48:52.436Z,10.64
2023-04-07T17:51:22.105Z,10.63
2023-04-07T17:53:53.917Z,10.61
2023-04-07T17:56:25.682Z,10.59
2023-04-07T17:59:01.913Z,10.56
2023-04-07T18:01:31.383Z,10.54
2023-04-07T18:04:00.929Z,10.43
2023-04-07T18:06:30.442Z,10.33
2023-04-07T18:09:00.942Z,10.18
2023-04-07T18:11:30.465Z,10.10
2023-04-07T18:14:00.352Z,10.00
2023-04-07T18:16:29.909Z,9.85
2023-04-07T18:19:00.685Z,9.66
2023-04-07T18:21:31.397Z,9.58
2023-04-07T18:24:00.705Z,9.43
2023-04-07T18:26:30.111Z,9.36
2023-04-07T18:28:59.672Z,9.29
2023-04-07T18:31:29.105Z,9.24
2023-04-07T18:34:02.489Z,9.18
2023-04-07T18:36:31.889Z,9.10
2023-04-07T18:39:01.185Z,9.05
2023-04-07T18:41:32.125Z,8.98
2023-04-07T18:44:01.543Z,8.92
2023-04-07T18:46:31.799Z,8.89
2023-04-07T18:49:01.377Z,8.85
2023-04-07T18:51:31.940Z,8.78
2023-04-07T18:54:01.409Z,8.78
2023-04-07T18:56:32.144Z,8.77
2023-04-07T18:59:01.508Z,8.75
2023-04-07T19:01:31.650Z,8.75
2023-04-07T19:04:03.485Z,8.71
2023-04-07T19:06:33.138Z,8.69
2023-04-07T19:09:04.097Z,8.66
2023-04-07T19:11:33.433Z,8.62
2023-04-07T19:14:03.608Z,8.61
2023-04-07T19:16:35.179Z,8.60
2023-04-07T19:19:05.322Z,8.55
2023-04-07T19:21:35.120Z,8.54
2023-04-07T19:24:04.620Z,8.55
2023-04-07T19:26:35.222Z,8.55
2023-04-07T19:29:07.590Z,8.55
2023-04-07T19:31:37.206Z,8.51
2023-04-07T19:34:08.577Z,8.49
2023-04-07T19:36:38.675Z,8.47
2023-04-07T19:39:08.100Z,8.46
2023-04-07T19:41:38.766Z,8.43
2023-04-07T19:44:08.278Z,8.40
2023-04-07T19:46:37.793Z,8.39
2023-04-07T19:49:07.120Z,8.38
2023-04-07T19:51:37.005Z,8.36
2023-04-07T19:54:06.763Z,8.36
2023-04-07T19:56:37.751Z,8.37
2023-04-07T19:59:09.907Z,8.35
2023-04-07T20:01:42.745Z,8.36
2023-04-07T20:04:13.233Z,8.36
2023-04-07T20:06:43.698Z,8.37
2023-04-07T20:09:13.343Z,8.38
2023-04-07T20:11:44.871Z,8.38
2023-04-07T20:14:15.165Z,8.38
2023-04-07T20:16:49.846Z,8.39
2023-04-07T20:19:20.518Z,8.41
2023-04-07T20:21:50.068Z,8.41
2023-04-07T20:24:20.739Z,8.42
2023-04-07T20:26:50.507Z,8.41
2023-04-07T20:29:22.328Z,8.40
2023-04-07T20:31:51.827Z,8.41
2023-04-07T20:34:23.084Z,8.40
2023-04-07T20:36:52.523Z,8.39
2023-04-07T20:39:22.656Z,8.37
2023-04-07T20:41:52.960Z,8.37
2023-04-07T20:44:23.607Z,8.35
2023-04-07T20:46:53.354Z,8.34
2023-04-07T20:49:26.256Z,8.33
2023-04-07T20:51:57.519Z,8.33
2023-04-07T20:54:27.944Z,8.31
2023-04-07T20:57:01.144Z,8.29
2023-04-07T20:59:32.154Z,8.28
2023-04-07T21:02:02.705Z,8.28
2023-04-07T21:04:32.618Z,8.24
2023-04-07T21:07:02.374Z,8.19
2023-04-07T21:09:32.857Z,8.16
2023-04-07T21:12:03.899Z,8.10
2023-04-07T21:14:34.909Z,8.05
2023-04-07T21:17:04.930Z,8.01
2023-04-07T21:19:34.328Z,7.97
2023-04-07T21:22:06.207Z,7.93
2023-04-07T21:24:37.114Z,7.90
2023-04-07T21:27:06.724Z,7.87
2023-04-07T21:29:36.237Z,7.86
2023-04-07T21:32:05.757Z,7.85
2023-04-07T21:34:35.981Z,7.85
2023-04-07T21:37:05.485Z,7.86
2023-04-07T21:39:36.772Z,7.86
2023-04-07T21:42:06.137Z,7.86
2023-04-07T21:44:35.535Z,7.86
2023-04-07T21:47:07.442Z,7.86
2023-04-07T21:49:39.173Z,7.85
2023-04-07T21:52:12.636Z,7.84
2023-04-07T21:54:41.990Z,7.82
2023-04-07T21:57:15.431Z,7.79
2023-04-07T21:59:44.993Z,7.76
2023-04-07T22:02:14.963Z,7.74
2023-04-07T22:04:44.924Z,7.73
2023-04-07T22:07:16.686Z,7.71
2023-04-07T22:09:46.139Z,7.71
2023-04-07T22:12:15.563Z,7.70
2023-04-07T22:14:45.581Z,7.70
2023-04-07T22:17:16.243Z,7.70
2023-04-07T22:19:46.345Z,7.70
2023-04-07T22:22:15.859Z,7.70
2023-04-07T22:24:47.676Z,7.70
2023-04-07T22:27:17.193Z,7.69
2023-04-07T22:29:46.598Z,7.69
2023-04-07T22:32:16.885Z,7.69
2023-04-07T22:34:50.116Z,7.69
2023-04-07T22:37:19.781Z,7.68
2023-04-07T22:39:49.149Z,7.67
2023-04-07T22:42:18.544Z,7.64
2023-04-07T22:44:48.008Z,7.63
2023-04-07T22:47:17.456Z,7.61
2023-04-07T22:49:48.124Z,7.61
2023-04-07T22:52:17.471Z,7.61
2023-04-07T22:54:46.852Z,7.60
2023-04-07T22:57:16.695Z,7.59
2023-04-07T22:59:46.189Z,7.60
2023-04-07T23:02:15.508Z,7.60
2023-04-07T23:04:45.081Z,7.60
2023-04-07T23:07:16.257Z,7.58
2023-04-07T23:09:45.714Z,7.57
2023-04-07T23:12:15.741Z,7.57
2023-04-07T23:14:45.165Z,7.57
2023-04-07T23:17:14.429Z,7.57
2023-04-07T23:19:43.795Z,7.57
2023-04-07T23:22:13.212Z,7.58
2023-04-07T23:24:43.613Z,7.59
2023-04-07T23:27:13.084Z,7.60
2023-04-07T23:29:45.712Z,7.61
2023-04-07T23:32:15.422Z,7.61
2023-04-07T23:34:45.053Z,7.61
2023-04-07T23:37:17.294Z,7.62
2023-04-07T23:39:46.746Z,7.62
2023-04-07T23:42:16.858Z,7.62
2023-04-07T23:44:46.206Z,7.63
2023-04-07T23:47:15.559Z,7.63
2023-04-07T23:49:46.050Z,7.62
2023-04-07T23:52:16.567Z,7.62
2023-04-07T23:54:45.993Z,7.62
2023-04-07T23:57:15.308Z,7.61
2023-04-07T23:59:44.647Z,7.60
